sensor_id;sensor_type;location;lat;lon;timestamp;P1;durP1;ratioP1;P2;durP2;ratioP2
9420;SDS011;4749;51.398;5.466;2023-06-14T00:01:42;6.75;;;5.45;;
9420;SDS011;4749;51.398;5.466;2023-06-14T00:04:13;7.30;;;5.43;;
9420;SDS011;4749;51.398;5.466;2023-06-14T00:06:43;7.07;;;5.40;;
9420;SDS011;4749;51.398;5.466;2023-06-14T00:09:15;6.68;;;5.50;;
9420;SDS011;4749;51.398;5.466;2023-06-14T00:11:44;9.68;;;6.05;;
9420;SDS011;4749;51.398;5.466;2023-06-14T00:14:11;10.48;;;5.03;;
9420;SDS011;4749;51.398;5.466;2023-06-14T00:16:39;9.88;;;5.63;;
9420;SDS011;4749;51.398;5.466;2023-06-14T00:19:09;5.57;;;4.88;;
9420;SDS011;4749;51.398;5.466;2023-06-14T00:21:37;7.35;;;5.38;;
9420;SDS011;4749;51.398;5.466;2023-06-14T00:24:05;10.70;;;5.88;;
9420;SDS011;4749;51.398;5.466;2023-06-14T00:26:34;8.73;;;5.45;;
9420;SDS011;4749;51.398;5.466;2023-06-14T00:29:01;7.55;;;5.47;;
9420;SDS011;4749;51.398;5.466;2023-06-14T00:31:28;7.03;;;5.32;;
9420;SDS011;4749;51.398;5.466;2023-06-14T00:33:55;9.80;;;5.43;;
9420;SDS011;4749;51.398;5.466;2023-06-14T00:36:22;7.40;;;5.40;;
9420;SDS011;4749;51.398;5.466;2023-06-14T00:38:49;10.35;;;6.10;;
9420;SDS011;4749;51.398;5.466;2023-06-14T00:41:17;6.75;;;5.28;;
9420;SDS011;4749;51.398;5.466;2023-06-14T00:43:44;6.43;;;5.07;;
9420;SDS011;4749;51.398;5.466;2023-06-14T00:46:11;8.07;;;5.22;;
9420;SDS011;4749;51.398;5.466;2023-06-14T00:48:38;6.85;;;5.90;;
9420;SDS011;4749;51.398;5.466;2023-06-14T00:51:06;6.70;;;5.03;;
9420;SDS011;4749;51.398;5.466;2023-06-14T00:53:33;8.15;;;5.15;;
9420;SDS011;4749;51.398;5.466;2023-06-14T00:56:02;8.10;;;5.13;;
9420;SDS011;4749;51.398;5.466;2023-06-14T00:58:30;7.68;;;5.20;;
9420;SDS011;4749;51.398;5.466;2023-06-14T01:00:58;8.10;;;5.72;;
9420;SDS011;4749;51.398;5.466;2023-06-14T01:03:25;7.55;;;5.53;;
9420;SDS011;4749;51.398;5.466;2023-06-14T01:06:18;8.63;;;5.78;;
9420;SDS011;4749;51.398;5.466;2023-06-14T01:08:51;8.43;;;5.70;;
9420;SDS011;4749;51.398;5.466;2023-06-14T01:12:07;9.55;;;5.75;;
9420;SDS011;4749;51.398;5.466;2023-06-14T01:14:46;9.02;;;5.90;;
9420;SDS011;4749;51.398;5.466;2023-06-14T01:17:16;8.48;;;5.00;;
9420;SDS011;4749;51.398;5.466;2023-06-14T01:19:44;6.97;;;6.03;;
9420;SDS011;4749;51.398;5.466;2023-06-14T01:22:12;5.82;;;5.22;;
9420;SDS011;4749;51.398;5.466;2023-06-14T01:24:39;8.82;;;4.97;;
9420;SDS011;4749;51.398;5.466;2023-06-14T01:27:11;6.90;;;5.50;;
9420;SDS011;4749;51.398;5.466;2023-06-14T01:29:39;7.18;;;4.93;;
9420;SDS011;4749;51.398;5.466;2023-06-14T01:32:12;9.65;;;5.00;;
9420;SDS011;4749;51.398;5.466;2023-06-14T01:34:39;10.80;;;5.47;;
9420;SDS011;4749;51.398;5.466;2023-06-14T01:37:07;8.00;;;5.05;;
9420;SDS011;4749;51.398;5.466;2023-06-14T01:39:34;7.68;;;5.05;;
9420;SDS011;4749;51.398;5.466;2023-06-14T01:42:02;6.40;;;4.78;;
9420;SDS011;4749;51.398;5.466;2023-06-14T01:44:32;11.07;;;4.95;;
9420;SDS011;4749;51.398;5.466;2023-06-14T01:47:00;6.15;;;4.55;;
9420;SDS011;4749;51.398;5.466;2023-06-14T01:49:27;5.38;;;4.30;;
9420;SDS011;4749;51.398;5.466;2023-06-14T01:51:54;8.10;;;4.88;;
9420;SDS011;4749;51.398;5.466;2023-06-14T01:54:21;9.25;;;4.85;;
9420;SDS011;4749;51.398;5.466;2023-06-14T01:56:49;7.22;;;4.82;;
9420;SDS011;4749;51.398;5.466;2023-06-14T01:59:16;7.10;;;4.70;;
9420;SDS011;4749;51.398;5.466;2023-06-14T02:01:43;6.45;;;4.20;;
9420;SDS011;4749;51.398;5.466;2023-06-14T02:04:12;5.78;;;4.32;;
9420;SDS011;4749;51.398;5.466;2023-06-14T02:06:39;5.43;;;4.60;;
9420;SDS011;4749;51.398;5.466;2023-06-14T02:09:06;8.13;;;4.85;;
9420;SDS011;4749;51.398;5.466;2023-06-14T02:11:33;9.20;;;4.50;;
9420;SDS011;4749;51.398;5.466;2023-06-14T02:14:00;7.93;;;4.53;;
9420;SDS011;4749;51.398;5.466;2023-06-14T02:16:28;7.90;;;4.05;;
9420;SDS011;4749;51.398;5.466;2023-06-14T02:18:56;6.82;;;4.43;;
9420;SDS011;4749;51.398;5.466;2023-06-14T02:21:23;5.32;;;4.18;;
9420;SDS011;4749;51.398;5.466;2023-06-14T02:23:50;7.05;;;4.40;;
9420;SDS011;4749;51.398;5.466;2023-06-14T02:26:18;5.97;;;4.28;;
9420;SDS011;4749;51.398;5.466;2023-06-14T02:28:45;7.75;;;4.22;;
9420;SDS011;4749;51.398;5.466;2023-06-14T02:31:12;6.05;;;4.57;;
9420;SDS011;4749;51.398;5.466;2023-06-14T02:33:39;8.00;;;4.38;;
9420;SDS011;4749;51.398;5.466;2023-06-14T02:36:06;5.90;;;4.18;;
9420;SDS011;4749;51.398;5.466;2023-06-14T02:38:33;7.97;;;4.70;;
9420;SDS011;4749;51.398;5.466;2023-06-14T02:41:00;5.75;;;4.50;;
9420;SDS011;4749;51.398;5.466;2023-06-14T02:43:28;8.32;;;4.18;;
9420;SDS011;4749;51.398;5.466;2023-06-14T02:45:56;5.90;;;4.32;;
9420;SDS011;4749;51.398;5.466;2023-06-14T02:48:23;6.57;;;4.75;;
9420;SDS011;4749;51.398;5.466;2023-06-14T02:50:50;6.45;;;4.65;;
9420;SDS011;4749;51.398;5.466;2023-06-14T02:53:18;9.90;;;4.15;;
9420;SDS011;4749;51.398;5.466;2023-06-14T02:55:45;6.30;;;4.72;;
9420;SDS011;4749;51.398;5.466;2023-06-14T02:58:13;5.18;;;3.85;;
9420;SDS011;4749;51.398;5.466;2023-06-14T03:00:40;6.00;;;4.10;;
9420;SDS011;4749;51.398;5.466;2023-06-14T03:03:09;8.02;;;4.43;;
9420;SDS011;4749;51.398;5.466;2023-06-14T03:05:41;5.40;;;4.55;;
9420;SDS011;4749;51.398;5.466;2023-06-14T03:08:16;5.10;;;3.78;;
9420;SDS011;4749;51.398;5.466;2023-06-14T03:10:46;8.32;;;4.45;;
9420;SDS011;4749;51.398;5.466;2023-06-14T03:13:14;5.63;;;3.80;;
9420;SDS011;4749;51.398;5.466;2023-06-14T03:15:42;6.50;;;4.10;;
9420;SDS011;4749;51.398;5.466;2023-06-14T03:18:11;5.00;;;4.07;;
9420;SDS011;4749;51.398;5.466;2023-06-14T03:20:38;5.38;;;4.00;;
9420;SDS011;4749;51.398;5.466;2023-06-14T03:23:05;5.35;;;3.80;;
9420;SDS011;4749;51.398;5.466;2023-06-14T03:25:33;5.40;;;3.80;;
9420;SDS011;4749;51.398;5.466;2023-06-14T03:28:02;6.40;;;3.90;;
9420;SDS011;4749;51.398;5.466;2023-06-14T03:30:29;5.03;;;3.72;;
9420;SDS011;4749;51.398;5.466;2023-06-14T03:32:57;5.88;;;3.85;;
9420;SDS011;4749;51.398;5.466;2023-06-14T03:35:27;6.85;;;3.85;;
9420;SDS011;4749;51.398;5.466;2023-06-14T03:37:55;5.25;;;3.70;;
9420;SDS011;4749;51.398;5.466;2023-06-14T03:40:22;5.25;;;3.75;;
9420;SDS011;4749;51.398;5.466;2023-06-14T03:42:54;4.88;;;3.90;;
9420;SDS011;4749;51.398;5.466;2023-06-14T03:45:21;6.07;;;3.63;;
9420;SDS011;4749;51.398;5.466;2023-06-14T03:47:48;7.95;;;4.25;;
9420;SDS011;4749;51.398;5.466;2023-06-14T03:50:17;6.13;;;3.75;;
9420;SDS011;4749;51.398;5.466;2023-06-14T03:52:45;5.85;;;4.28;;
9420;SDS011;4749;51.398;5.466;2023-06-14T03:55:15;7.97;;;4.05;;
9420;SDS011;4749;51.398;5.466;2023-06-14T03:57:45;7.30;;;3.53;;
9420;SDS011;4749;51.398;5.466;2023-06-14T04:00:12;8.27;;;4.20;;
9420;SDS011;4749;51.398;5.466;2023-06-14T04:02:41;7.55;;;4.40;;
9420;SDS011;4749;51.398;5.466;2023-06-14T04:05:10;6.47;;;3.78;;
9420;SDS011;4749;51.398;5.466;2023-06-14T04:07:37;7.60;;;3.60;;
9420;SDS011;4749;51.398;5.466;2023-06-14T04:10:06;4.55;;;3.58;;
9420;SDS011;4749;51.398;5.466;2023-06-14T04:12:34;6.05;;;4.25;;
9420;SDS011;4749;51.398;5.466;2023-06-14T04:15:01;5.93;;;3.95;;
9420;SDS011;4749;51.398;5.466;2023-06-14T04:17:46;11.73;;;5.00;;
9420;SDS011;4749;51.398;5.466;2023-06-14T04:20:13;6.78;;;4.03;;
9420;SDS011;4749;51.398;5.466;2023-06-14T04:22:40;6.53;;;4.13;;
9420;SDS011;4749;51.398;5.466;2023-06-14T04:25:09;6.50;;;4.07;;
9420;SDS011;4749;51.398;5.466;2023-06-14T04:27:38;6.75;;;4.47;;
9420;SDS011;4749;51.398;5.466;2023-06-14T04:30:06;6.75;;;3.72;;
9420;SDS011;4749;51.398;5.466;2023-06-14T04:32:34;4.63;;;3.92;;
9420;SDS011;4749;51.398;5.466;2023-06-14T04:35:06;5.85;;;4.43;;
9420;SDS011;4749;51.398;5.466;2023-06-14T04:37:34;6.57;;;3.88;;
9420;SDS011;4749;51.398;5.466;2023-06-14T04:40:06;4.28;;;3.55;;
9420;SDS011;4749;51.398;5.466;2023-06-14T04:42:37;7.80;;;3.85;;
9420;SDS011;4749;51.398;5.466;2023-06-14T04:45:06;5.00;;;4.45;;
9420;SDS011;4749;51.398;5.466;2023-06-14T04:47:35;4.70;;;3.88;;
9420;SDS011;4749;51.398;5.466;2023-06-14T04:50:04;5.70;;;3.78;;
9420;SDS011;4749;51.398;5.466;2023-06-14T04:52:31;4.15;;;3.75;;
9420;SDS011;4749;51.398;5.466;2023-06-14T04:54:59;7.05;;;4.05;;
9420;SDS011;4749;51.398;5.466;2023-06-14T04:57:28;9.07;;;3.72;;
9420;SDS011;4749;51.398;5.466;2023-06-14T04:59:55;3.90;;;3.47;;
9420;SDS011;4749;51.398;5.466;2023-06-14T05:02:24;4.93;;;3.70;;
9420;SDS011;4749;51.398;5.466;2023-06-14T05:04:52;7.53;;;3.53;;
9420;SDS011;4749;51.398;5.466;2023-06-14T05:07:20;8.23;;;3.80;;
9420;SDS011;4749;51.398;5.466;2023-06-14T05:09:50;8.52;;;4.25;;
9420;SDS011;4749;51.398;5.466;2023-06-14T05:12:17;4.97;;;3.50;;
9420;SDS011;4749;51.398;5.466;2023-06-14T05:14:45;6.32;;;3.90;;
9420;SDS011;4749;51.398;5.466;2023-06-14T05:17:12;7.10;;;3.80;;
9420;SDS011;4749;51.398;5.466;2023-06-14T05:19:39;7.93;;;4.07;;
9420;SDS011;4749;51.398;5.466;2023-06-14T05:22:07;10.80;;;4.30;;
9420;SDS011;4749;51.398;5.466;2023-06-14T05:24:34;5.35;;;3.63;;
9420;SDS011;4749;51.398;5.466;2023-06-14T05:27:01;5.75;;;4.15;;
9420;SDS011;4749;51.398;5.466;2023-06-14T05:29:28;6.03;;;4.00;;
9420;SDS011;4749;51.398;5.466;2023-06-14T05:31:56;4.88;;;3.85;;
9420;SDS011;4749;51.398;5.466;2023-06-14T05:34:23;7.20;;;3.80;;
9420;SDS011;4749;51.398;5.466;2023-06-14T05:36:50;7.60;;;4.38;;
9420;SDS011;4749;51.398;5.466;2023-06-14T05:39:17;9.15;;;4.03;;
9420;SDS011;4749;51.398;5.466;2023-06-14T05:41:45;7.72;;;4.28;;
9420;SDS011;4749;51.398;5.466;2023-06-14T05:44:14;7.70;;;3.80;;
9420;SDS011;4749;51.398;5.466;2023-06-14T05:46:41;12.85;;;4.18;;
9420;SDS011;4749;51.398;5.466;2023-06-14T05:49:09;8.48;;;4.47;;
9420;SDS011;4749;51.398;5.466;2023-06-14T05:51:38;5.78;;;4.18;;
9420;SDS011;4749;51.398;5.466;2023-06-14T05:54:05;8.18;;;3.78;;
9420;SDS011;4749;51.398;5.466;2023-06-14T05:56:32;4.88;;;3.78;;
9420;SDS011;4749;51.398;5.466;2023-06-14T05:58:59;5.75;;;3.90;;
9420;SDS011;4749;51.398;5.466;2023-06-14T06:01:27;6.82;;;4.03;;
9420;SDS011;4749;51.398;5.466;2023-06-14T06:03:54;5.25;;;3.60;;
9420;SDS011;4749;51.398;5.466;2023-06-14T06:06:21;5.35;;;4.13;;
9420;SDS011;4749;51.398;5.466;2023-06-14T06:08:49;7.43;;;4.20;;
9420;SDS011;4749;51.398;5.466;2023-06-14T06:11:16;7.80;;;4.50;;
9420;SDS011;4749;51.398;5.466;2023-06-14T06:13:43;4.95;;;4.05;;
9420;SDS011;4749;51.398;5.466;2023-06-14T06:16:10;8.63;;;4.45;;
9420;SDS011;4749;51.398;5.466;2023-06-14T06:18:37;8.98;;;4.75;;
9420;SDS011;4749;51.398;5.466;2023-06-14T06:21:05;9.40;;;4.38;;
9420;SDS011;4749;51.398;5.466;2023-06-14T06:23:33;5.78;;;4.20;;
9420;SDS011;4749;51.398;5.466;2023-06-14T06:26:00;9.00;;;4.50;;
9420;SDS011;4749;51.398;5.466;2023-06-14T06:28:28;8.35;;;4.13;;
9420;SDS011;4749;51.398;5.466;2023-06-14T06:30:55;6.70;;;3.97;;
9420;SDS011;4749;51.398;5.466;2023-06-14T06:33:22;7.72;;;4.25;;
9420;SDS011;4749;51.398;5.466;2023-06-14T06:35:50;6.82;;;4.18;;
9420;SDS011;4749;51.398;5.466;2023-06-14T06:38:17;6.55;;;3.95;;
9420;SDS011;4749;51.398;5.466;2023-06-14T06:40:45;8.50;;;4.35;;
9420;SDS011;4749;51.398;5.466;2023-06-14T06:43:12;8.32;;;4.38;;
9420;SDS011;4749;51.398;5.466;2023-06-14T06:45:40;8.18;;;3.88;;
9420;SDS011;4749;51.398;5.466;2023-06-14T06:48:07;6.63;;;4.00;;
9420;SDS011;4749;51.398;5.466;2023-06-14T06:50:36;9.65;;;4.55;;
9420;SDS011;4749;51.398;5.466;2023-06-14T06:53:04;7.50;;;3.95;;
9420;SDS011;4749;51.398;5.466;2023-06-14T06:55:31;7.43;;;4.65;;
9420;SDS011;4749;51.398;5.466;2023-06-14T06:57:58;7.57;;;3.85;;
9420;SDS011;4749;51.398;5.466;2023-06-14T07:00:26;4.90;;;3.53;;
9420;SDS011;4749;51.398;5.466;2023-06-14T07:02:54;9.40;;;3.90;;
9420;SDS011;4749;51.398;5.466;2023-06-14T07:05:21;9.25;;;4.07;;
9420;SDS011;4749;51.398;5.466;2023-06-14T07:07:49;8.45;;;3.17;;
9420;SDS011;4749;51.398;5.466;2023-06-14T07:10:16;6.28;;;3.50;;
9420;SDS011;4749;51.398;5.466;2023-06-14T07:12:44;6.85;;;3.70;;
9420;SDS011;4749;51.398;5.466;2023-06-14T07:15:12;5.82;;;3.40;;
9420;SDS011;4749;51.398;5.466;2023-06-14T07:17:40;11.80;;;3.35;;
9420;SDS011;4749;51.398;5.466;2023-06-14T07:20:08;8.50;;;3.40;;
9420;SDS011;4749;51.398;5.466;2023-06-14T07:22:40;5.20;;;3.40;;
9420;SDS011;4749;51.398;5.466;2023-06-14T07:25:09;11.50;;;3.33;;
9420;SDS011;4749;51.398;5.466;2023-06-14T07:27:43;7.15;;;3.38;;
9420;SDS011;4749;51.398;5.466;2023-06-14T07:30:12;8.88;;;3.08;;
9420;SDS011;4749;51.398;5.466;2023-06-14T07:32:39;5.72;;;3.00;;
9420;SDS011;4749;51.398;5.466;2023-06-14T07:35:06;5.82;;;2.83;;
9420;SDS011;4749;51.398;5.466;2023-06-14T07:37:34;4.90;;;3.10;;
9420;SDS011;4749;51.398;5.466;2023-06-14T07:40:01;3.50;;;2.90;;
9420;SDS011;4749;51.398;5.466;2023-06-14T07:42:34;7.53;;;2.58;;
9420;SDS011;4749;51.398;5.466;2023-06-14T07:45:04;5.20;;;2.90;;
9420;SDS011;4749;51.398;5.466;2023-06-14T07:47:32;3.58;;;2.90;;
9420;SDS011;4749;51.398;5.466;2023-06-14T07:50:00;6.45;;;3.20;;
9420;SDS011;4749;51.398;5.466;2023-06-14T07:52:27;9.00;;;3.25;;
9420;SDS011;4749;51.398;5.466;2023-06-14T07:54:55;7.40;;;3.30;;
9420;SDS011;4749;51.398;5.466;2023-06-14T07:57:22;8.38;;;3.00;;
9420;SDS011;4749;51.398;5.466;2023-06-14T07:59:50;9.43;;;3.08;;
9420;SDS011;4749;51.398;5.466;2023-06-14T08:02:26;9.75;;;3.08;;
9420;SDS011;4749;51.398;5.466;2023-06-14T08:04:53;3.97;;;3.40;;
9420;SDS011;4749;51.398;5.466;2023-06-14T08:07:22;7.25;;;3.17;;
9420;SDS011;4749;51.398;5.466;2023-06-14T08:09:49;6.88;;;3.03;;
9420;SDS011;4749;51.398;5.466;2023-06-14T08:12:16;9.70;;;3.10;;
9420;SDS011;4749;51.398;5.466;2023-06-14T08:14:43;6.05;;;2.53;;
9420;SDS011;4749;51.398;5.466;2023-06-14T08:17:11;4.90;;;2.85;;
9420;SDS011;4749;51.398;5.466;2023-06-14T08:19:39;5.05;;;2.55;;
9420;SDS011;4749;51.398;5.466;2023-06-14T08:22:07;7.10;;;2.95;;
9420;SDS011;4749;51.398;5.466;2023-06-14T08:24:37;8.80;;;3.13;;
9420;SDS011;4749;51.398;5.466;2023-06-14T08:27:06;9.90;;;2.95;;
9420;SDS011;4749;51.398;5.466;2023-06-14T08:29:33;7.50;;;2.80;;
9420;SDS011;4749;51.398;5.466;2023-06-14T08:32:00;6.65;;;2.30;;
9420;SDS011;4749;51.398;5.466;2023-06-14T08:34:28;4.95;;;2.67;;
9420;SDS011;4749;51.398;5.466;2023-06-14T08:36:55;5.57;;;2.63;;
9420;SDS011;4749;51.398;5.466;2023-06-14T08:39:22;7.10;;;2.60;;
9420;SDS011;4749;51.398;5.466;2023-06-14T08:41:50;4.57;;;2.42;;
9420;SDS011;4749;51.398;5.466;2023-06-14T08:44:20;4.03;;;2.45;;
9420;SDS011;4749;51.398;5.466;2023-06-14T08:46:47;7.68;;;2.35;;
9420;SDS011;4749;51.398;5.466;2023-06-14T08:49:17;7.40;;;3.28;;
9420;SDS011;4749;51.398;5.466;2023-06-14T08:51:44;5.05;;;2.60;;
9420;SDS011;4749;51.398;5.466;2023-06-14T08:54:13;3.60;;;2.20;;
9420;SDS011;4749;51.398;5.466;2023-06-14T08:56:41;9.65;;;2.50;;
9420;SDS011;4749;51.398;5.466;2023-06-14T08:59:10;5.78;;;2.22;;
9420;SDS011;4749;51.398;5.466;2023-06-14T09:01:38;8.85;;;2.47;;
9420;SDS011;4749;51.398;5.466;2023-06-14T09:04:11;3.83;;;1.80;;
9420;SDS011;4749;51.398;5.466;2023-06-14T09:06:39;8.77;;;2.38;;
9420;SDS011;4749;51.398;5.466;2023-06-14T09:09:07;5.75;;;2.45;;
9420;SDS011;4749;51.398;5.466;2023-06-14T09:11:34;3.53;;;2.15;;
9420;SDS011;4749;51.398;5.466;2023-06-14T09:14:02;6.57;;;2.60;;
9420;SDS011;4749;51.398;5.466;2023-06-14T09:16:29;7.22;;;1.90;;
9420;SDS011;4749;51.398;5.466;2023-06-14T09:18:59;4.30;;;1.88;;
9420;SDS011;4749;51.398;5.466;2023-06-14T09:21:26;2.47;;;1.92;;
9420;SDS011;4749;51.398;5.466;2023-06-14T09:23:57;3.60;;;1.65;;
9420;SDS011;4749;51.398;5.466;2023-06-14T09:26:25;3.50;;;1.70;;
9420;SDS011;4749;51.398;5.466;2023-06-14T09:28:53;5.55;;;1.50;;
9420;SDS011;4749;51.398;5.466;2023-06-14T09:31:21;2.53;;;1.45;;
9420;SDS011;4749;51.398;5.466;2023-06-14T09:33:49;1.92;;;1.33;;
9420;SDS011;4749;51.398;5.466;2023-06-14T09:36:17;1.45;;;1.30;;
9420;SDS011;4749;51.398;5.466;2023-06-14T09:38:52;2.38;;;1.50;;
9420;SDS011;4749;51.398;5.466;2023-06-14T09:41:20;4.20;;;1.63;;
9420;SDS011;4749;51.398;5.466;2023-06-14T09:44:05;2.55;;;1.25;;
9420;SDS011;4749;51.398;5.466;2023-06-14T09:46:45;1.20;;;0.98;;
9420;SDS011;4749;51.398;5.466;2023-06-14T09:49:13;4.80;;;1.20;;
9420;SDS011;4749;51.398;5.466;2023-06-14T09:51:44;2.20;;;1.10;;
9420;SDS011;4749;51.398;5.466;2023-06-14T09:54:18;4.25;;;1.23;;
9420;SDS011;4749;51.398;5.466;2023-06-14T09:56:49;1.98;;;1.00;;
9420;SDS011;4749;51.398;5.466;2023-06-14T09:59:22;1.63;;;1.30;;
9420;SDS011;4749;51.398;5.466;2023-06-14T10:01:58;4.22;;;1.20;;
9420;SDS011;4749;51.398;5.466;2023-06-14T10:04:27;3.60;;;1.50;;
9420;SDS011;4749;51.398;5.466;2023-06-14T10:06:57;1.33;;;1.10;;
9420;SDS011;4749;51.398;5.466;2023-06-14T10:09:24;7.20;;;1.30;;
9420;SDS011;4749;51.398;5.466;2023-06-14T10:11:54;2.95;;;1.05;;
9420;SDS011;4749;51.398;5.466;2023-06-14T10:14:22;1.45;;;1.20;;
9420;SDS011;4749;51.398;5.466;2023-06-14T10:19:48;2.55;;;1.25;;
9420;SDS011;4749;51.398;5.466;2023-06-14T10:22:28;3.60;;;1.30;;
9420;SDS011;4749;51.398;5.466;2023-06-14T10:25:02;2.55;;;1.02;;
9420;SDS011;4749;51.398;5.466;2023-06-14T10:27:38;4.82;;;1.40;;
9420;SDS011;4749;51.398;5.466;2023-06-14T10:30:11;3.63;;;1.30;;
9420;SDS011;4749;51.398;5.466;2023-06-14T10:35:36;4.95;;;1.23;;
9420;SDS011;4749;51.398;5.466;2023-06-14T10:38:09;2.22;;;1.35;;
9420;SDS011;4749;51.398;5.466;2023-06-14T10:40:39;2.30;;;1.10;;
9420;SDS011;4749;51.398;5.466;2023-06-14T10:46:14;2.78;;;1.30;;
9420;SDS011;4749;51.398;5.466;2023-06-14T10:48:44;2.40;;;1.08;;
9420;SDS011;4749;51.398;5.466;2023-06-14T10:51:18;3.88;;;1.40;;
9420;SDS011;4749;51.398;5.466;2023-06-14T10:53:50;1.75;;;1.23;;
9420;SDS011;4749;51.398;5.466;2023-06-14T10:56:30;2.42;;;1.30;;
9420;SDS011;4749;51.398;5.466;2023-06-14T10:58:58;4.30;;;1.40;;
9420;SDS011;4749;51.398;5.466;2023-06-14T11:01:35;1.80;;;1.40;;
9420;SDS011;4749;51.398;5.466;2023-06-14T11:04:06;1.80;;;1.20;;
9420;SDS011;4749;51.398;5.466;2023-06-14T11:06:45;5.45;;;1.58;;
9420;SDS011;4749;51.398;5.466;2023-06-14T11:12:33;2.00;;;1.38;;
9420;SDS011;4749;51.398;5.466;2023-06-14T11:15:03;3.38;;;1.42;;
9420;SDS011;4749;51.398;5.466;2023-06-14T11:17:32;4.45;;;1.20;;
9420;SDS011;4749;51.398;5.466;2023-06-14T11:20:12;3.58;;;1.23;;
9420;SDS011;4749;51.398;5.466;2023-06-14T11:22:48;2.67;;;1.30;;
9420;SDS011;4749;51.398;5.466;2023-06-14T11:25:15;3.00;;;1.20;;
9420;SDS011;4749;51.398;5.466;2023-06-14T11:27:42;1.70;;;1.30;;
9420;SDS011;4749;51.398;5.466;2023-06-14T11:30:11;2.13;;;1.20;;
9420;SDS011;4749;51.398;5.466;2023-06-14T11:32:40;1.85;;;1.27;;
9420;SDS011;4749;51.398;5.466;2023-06-14T11:35:07;1.65;;;1.23;;
9420;SDS011;4749;51.398;5.466;2023-06-14T11:37:36;1.98;;;1.30;;
9420;SDS011;4749;51.398;5.466;2023-06-14T11:40:04;2.47;;;1.40;;
9420;SDS011;4749;51.398;5.466;2023-06-14T11:42:35;4.05;;;1.42;;
9420;SDS011;4749;51.398;5.466;2023-06-14T11:45:04;5.47;;;1.73;;
9420;SDS011;4749;51.398;5.466;2023-06-14T11:47:36;4.15;;;1.35;;
9420;SDS011;4749;51.398;5.466;2023-06-14T11:50:06;5.68;;;1.30;;
9420;SDS011;4749;51.398;5.466;2023-06-14T11:52:36;3.10;;;1.27;;
9420;SDS011;4749;51.398;5.466;2023-06-14T11:55:04;1.70;;;1.50;;
9420;SDS011;4749;51.398;5.466;2023-06-14T11:57:36;2.97;;;1.50;;
9420;SDS011;4749;51.398;5.466;2023-06-14T12:00:08;1.95;;;1.70;;
9420;SDS011;4749;51.398;5.466;2023-06-14T12:02:39;1.92;;;1.38;;
9420;SDS011;4749;51.398;5.466;2023-06-14T12:05:07;5.30;;;1.40;;
9420;SDS011;4749;51.398;5.466;2023-06-14T12:07:38;1.90;;;1.08;;
9420;SDS011;4749;51.398;5.466;2023-06-14T12:10:08;3.38;;;1.55;;
9420;SDS011;4749;51.398;5.466;2023-06-14T12:12:37;1.80;;;1.30;;
9420;SDS011;4749;51.398;5.466;2023-06-14T12:15:06;1.80;;;1.25;;
9420;SDS011;4749;51.398;5.466;2023-06-14T12:17:35;5.07;;;1.60;;
9420;SDS011;4749;51.398;5.466;2023-06-14T12:22:37;4.88;;;1.38;;
9420;SDS011;4749;51.398;5.466;2023-06-14T12:25:04;2.65;;;1.15;;
9420;SDS011;4749;51.398;5.466;2023-06-14T12:27:32;3.15;;;1.35;;
9420;SDS011;4749;51.398;5.466;2023-06-14T12:30:00;4.70;;;1.35;;
9420;SDS011;4749;51.398;5.466;2023-06-14T12:32:29;2.75;;;1.35;;
9420;SDS011;4749;51.398;5.466;2023-06-14T12:34:56;1.20;;;1.10;;
9420;SDS011;4749;51.398;5.466;2023-06-14T12:37:24;4.70;;;1.20;;
9420;SDS011;4749;51.398;5.466;2023-06-14T12:39:51;2.08;;;1.30;;
9420;SDS011;4749;51.398;5.466;2023-06-14T12:42:18;1.10;;;1.00;;
9420;SDS011;4749;51.398;5.466;2023-06-14T12:44:45;2.60;;;1.08;;
9420;SDS011;4749;51.398;5.466;2023-06-14T12:47:12;3.17;;;1.33;;
9420;SDS011;4749;51.398;5.466;2023-06-14T12:49:40;2.25;;;1.00;;
9420;SDS011;4749;51.398;5.466;2023-06-14T12:52:07;3.08;;;1.40;;
9420;SDS011;4749;51.398;5.466;2023-06-14T12:54:34;7.65;;;1.17;;
9420;SDS011;4749;51.398;5.466;2023-06-14T12:57:07;2.63;;;1.27;;
9420;SDS011;4749;51.398;5.466;2023-06-14T12:59:34;1.30;;;1.20;;
9420;SDS011;4749;51.398;5.466;2023-06-14T13:04:42;1.75;;;1.15;;
9420;SDS011;4749;51.398;5.466;2023-06-14T13:07:10;3.05;;;1.23;;
9420;SDS011;4749;51.398;5.466;2023-06-14T13:09:37;3.95;;;1.20;;
9420;SDS011;4749;51.398;5.466;2023-06-14T13:12:04;4.60;;;1.27;;
9420;SDS011;4749;51.398;5.466;2023-06-14T13:14:33;1.67;;;0.98;;
9420;SDS011;4749;51.398;5.466;2023-06-14T13:17:00;5.53;;;1.05;;
9420;SDS011;4749;51.398;5.466;2023-06-14T13:19:27;1.58;;;1.10;;
9420;SDS011;4749;51.398;5.466;2023-06-14T13:21:54;3.90;;;1.33;;
9420;SDS011;4749;51.398;5.466;2023-06-14T13:24:21;1.52;;;1.10;;
9420;SDS011;4749;51.398;5.466;2023-06-14T13:26:49;2.13;;;1.17;;
9420;SDS011;4749;51.398;5.466;2023-06-14T13:29:16;6.28;;;1.30;;
9420;SDS011;4749;51.398;5.466;2023-06-14T13:31:43;1.52;;;1.10;;
9420;SDS011;4749;51.398;5.466;2023-06-14T13:34:11;1.83;;;1.30;;
9420;SDS011;4749;51.398;5.466;2023-06-14T13:36:38;2.28;;;0.98;;
9420;SDS011;4749;51.398;5.466;2023-06-14T13:39:06;3.42;;;1.00;;
9420;SDS011;4749;51.398;5.466;2023-06-14T13:41:33;2.17;;;1.20;;
9420;SDS011;4749;51.398;5.466;2023-06-14T13:44:01;2.17;;;1.20;;
9420;SDS011;4749;51.398;5.466;2023-06-14T13:46:31;1.73;;;1.00;;
9420;SDS011;4749;51.398;5.466;2023-06-14T13:48:59;6.22;;;1.10;;
9420;SDS011;4749;51.398;5.466;2023-06-14T13:51:27;2.55;;;1.35;;
9420;SDS011;4749;51.398;5.466;2023-06-14T13:53:55;1.85;;;1.00;;
9420;SDS011;4749;51.398;5.466;2023-06-14T13:56:22;1.13;;;0.77;;
9420;SDS011;4749;51.398;5.466;2023-06-14T13:58:50;3.17;;;1.13;;
9420;SDS011;4749;51.398;5.466;2023-06-14T14:01:18;2.13;;;1.10;;
9420;SDS011;4749;51.398;5.466;2023-06-14T14:03:49;2.60;;;1.50;;
9420;SDS011;4749;51.398;5.466;2023-06-14T14:06:16;1.95;;;1.20;;
9420;SDS011;4749;51.398;5.466;2023-06-14T14:08:43;1.52;;;1.00;;
9420;SDS011;4749;51.398;5.466;2023-06-14T14:11:11;1.52;;;0.90;;
9420;SDS011;4749;51.398;5.466;2023-06-14T14:13:38;1.23;;;0.85;;
9420;SDS011;4749;51.398;5.466;2023-06-14T14:16:06;1.98;;;0.75;;
9420;SDS011;4749;51.398;5.466;2023-06-14T14:18:34;1.83;;;0.70;;
9420;SDS011;4749;51.398;5.466;2023-06-14T14:21:01;3.38;;;0.90;;
9420;SDS011;4749;51.398;5.466;2023-06-14T14:23:29;3.08;;;0.85;;
9420;SDS011;4749;51.398;5.466;2023-06-14T14:25:57;2.25;;;0.90;;
9420;SDS011;4749;51.398;5.466;2023-06-14T14:28:24;0.95;;;0.80;;
9420;SDS011;4749;51.398;5.466;2023-06-14T14:30:51;2.20;;;0.77;;
9420;SDS011;4749;51.398;5.466;2023-06-14T14:33:20;3.10;;;1.25;;
9420;SDS011;4749;51.398;5.466;2023-06-14T14:35:47;1.80;;;1.02;;
9420;SDS011;4749;51.398;5.466;2023-06-14T14:38:14;0.77;;;0.70;;
9420;SDS011;4749;51.398;5.466;2023-06-14T14:40:42;1.20;;;0.70;;
9420;SDS011;4749;51.398;5.466;2023-06-14T14:43:11;1.10;;;0.75;;
9420;SDS011;4749;51.398;5.466;2023-06-14T14:45:38;1.38;;;0.88;;
9420;SDS011;4749;51.398;5.466;2023-06-14T14:48:05;1.40;;;0.88;;
9420;SDS011;4749;51.398;5.466;2023-06-14T14:50:33;5.10;;;1.00;;
9420;SDS011;4749;51.398;5.466;2023-06-14T14:53:00;4.13;;;1.17;;
9420;SDS011;4749;51.398;5.466;2023-06-14T14:55:27;1.48;;;0.80;;
9420;SDS011;4749;51.398;5.466;2023-06-14T14:57:54;1.35;;;1.00;;
9420;SDS011;4749;51.398;5.466;2023-06-14T15:00:22;1.00;;;0.80;;
9420;SDS011;4749;51.398;5.466;2023-06-14T15:02:49;2.05;;;0.82;;
9420;SDS011;4749;51.398;5.466;2023-06-14T15:05:16;2.05;;;0.90;;
9420;SDS011;4749;51.398;5.466;2023-06-14T15:07:44;4.20;;;1.27;;
9420;SDS011;4749;51.398;5.466;2023-06-14T15:10:12;2.20;;;0.80;;
9420;SDS011;4749;51.398;5.466;2023-06-14T15:12:39;2.95;;;0.80;;
9420;SDS011;4749;51.398;5.466;2023-06-14T15:15:06;1.35;;;0.90;;
9420;SDS011;4749;51.398;5.466;2023-06-14T15:17:35;3.10;;;1.08;;
9420;SDS011;4749;51.398;5.466;2023-06-14T15:20:03;1.60;;;0.80;;
9420;SDS011;4749;51.398;5.466;2023-06-14T15:22:32;2.58;;;0.90;;
9420;SDS011;4749;51.398;5.466;2023-06-14T15:24:59;2.58;;;0.82;;
9420;SDS011;4749;51.398;5.466;2023-06-14T15:27:26;1.05;;;0.70;;
9420;SDS011;4749;51.398;5.466;2023-06-14T15:29:54;2.45;;;1.08;;
9420;SDS011;4749;51.398;5.466;2023-06-14T15:32:21;1.35;;;0.82;;
9420;SDS011;4749;51.398;5.466;2023-06-14T15:34:48;3.42;;;0.95;;
9420;SDS011;4749;51.398;5.466;2023-06-14T15:37:16;1.60;;;0.70;;
9420;SDS011;4749;51.398;5.466;2023-06-14T15:39:43;2.08;;;0.90;;
9420;SDS011;4749;51.398;5.466;2023-06-14T15:42:10;5.72;;;1.10;;